sensor_id;sensor_type;location;lat;lon;timestamp;pressure;altitude;pressure_sealevel;temperature;humidity
4617;BME280;2321;42.704;23.384;2022-10-26T00:01:06;95903.78;;;16.70;100.00
4617;BME280;2321;42.704;23.384;2022-10-26T00:03:35;95906.06;;;16.66;100.00
4617;BME280;2321;42.704;23.384;2022-10-26T00:06:04;95898.69;;;16.62;100.00
4617;BME280;2321;42.704;23.384;2022-10-26T00:08:31;95906.13;;;16.60;100.00
4617;BME280;2321;42.704;23.384;2022-10-26T00:10:58;95912.75;;;16.57;100.00
4617;BME280;2321;42.704;23.384;2022-10-26T00:13:25;95906.16;;;16.53;100.00
4617;BME280;2321;42.704;23.384;2022-10-26T00:15:52;95905.38;;;16.52;100.00
4617;BME280;2321;42.704;23.384;2022-10-26T00:18:21;95903.72;;;16.51;100.00
4617;BME280;2321;42.704;23.384;2022-10-26T00:20:48;95893.78;;;16.52;100.00
4617;BME280;2321;42.704;23.384;2022-10-26T00:23:15;95907.63;;;16.55;100.00
4617;BME280;2321;42.704;23.384;2022-10-26T00:25:42;95908.03;;;16.52;100.00
4617;BME280;2321;42.704;23.384;2022-10-26T00:28:09;95901.00;;;16.51;100.00
4617;BME280;2321;42.704;23.384;2022-10-26T00:30:38;95906.81;;;16.48;100.00
4617;BME280;2321;42.704;23.384;2022-10-26T00:33:05;95908.69;;;16.48;100.00
4617;BME280;2321;42.704;23.384;2022-10-26T00:35:33;95908.47;;;16.49;100.00
4617;BME280;2321;42.704;23.384;2022-10-26T00:38:00;95905.41;;;16.46;100.00
4617;BME280;2321;42.704;23.384;2022-10-26T00:40:27;95905.88;;;16.36;100.00
4617;BME280;2321;42.704;23.384;2022-10-26T00:42:55;95905.75;;;16.23;100.00
4617;BME280;2321;42.704;23.384;2022-10-26T00:45:23;95903.09;;;16.17;100.00
4617;BME280;2321;42.704;23.384;2022-10-26T00:47:52;95903.50;;;16.14;100.00
4617;BME280;2321;42.704;23.384;2022-10-26T00:50:26;95901.88;;;16.13;100.00
4617;BME280;2321;42.704;23.384;2022-10-26T00:52:56;95890.34;;;15.98;100.00
4617;BME280;2321;42.704;23.384;2022-10-26T00:55:26;95894.25;;;16.09;100.00
4617;BME280;2321;42.704;23.384;2022-10-26T00:57:55;95896.94;;;16.09;100.00
4617;BME280;2321;42.704;23.384;2022-10-26T01:00:21;95890.31;;;16.05;100.00
4617;BME280;2321;42.704;23.384;2022-10-26T01:02:50;95893.44;;;16.02;100.00
4617;BME280;2321;42.704;23.384;2022-10-26T01:05:18;95895.72;;;15.98;100.00
4617;BME280;2321;42.704;23.384;2022-10-26T01:07:46;95895.94;;;15.97;100.00
4617;BME280;2321;42.704;23.384;2022-10-26T01:10:15;95896.13;;;15.95;100.00
4617;BME280;2321;42.704;23.384;2022-10-26T01:12:43;95891.00;;;15.94;100.00
4617;BME280;2321;42.704;23.384;2022-10-26T01:15:10;95886.47;;;15.87;100.00
4617;BME280;2321;42.704;23.384;2022-10-26T01:17:50;95887.34;;;15.81;100.00
4617;BME280;2321;42.704;23.384;2022-10-26T01:20:42;95886.09;;;15.77;100.00
4617;BME280;2321;42.704;23.384;2022-10-26T01:23:22;95890.66;;;15.76;100.00
4617;BME280;2321;42.704;23.384;2022-10-26T01:26:19;95890.44;;;15.78;100.00
4617;BME280;2321;42.704;23.384;2022-10-26T01:29:16;95893.56;;;15.75;100.00
4617;BME280;2321;42.704;23.384;2022-10-26T01:31:53;95892.47;;;15.83;100.00
4617;BME280;2321;42.704;23.384;2022-10-26T01:34:24;95895.16;;;15.83;100.00
4617;BME280;2321;42.704;23.384;2022-10-26T01:36:56;95888.34;;;15.87;100.00
4617;BME280;2321;42.704;23.384;2022-10-26T01:39:28;95897.25;;;15.81;100.00
4617;BME280;2321;42.704;23.384;2022-10-26T01:42:00;95893.31;;;15.83;100.00
4617;BME280;2321;42.704;23.384;2022-10-26T01:44:32;95879.69;;;15.85;100.00
4617;BME280;2321;42.704;23.384;2022-10-26T01:47:06;95873.06;;;15.87;100.00
4617;BME280;2321;42.704;23.384;2022-10-26T01:49:35;95872.66;;;15.84;100.00
4617;BME280;2321;42.704;23.384;2022-10-26T01:52:04;95885.25;;;15.83;100.00
4617;BME280;2321;42.704;23.384;2022-10-26T01:54:34;95882.44;;;15.64;100.00
4617;BME280;2321;42.704;23.384;2022-10-26T01:57:02;95882.31;;;15.45;100.00
4617;BME280;2321;42.704;23.384;2022-10-26T01:59:55;95882.13;;;15.33;100.00
4617;BME280;2321;42.704;23.384;2022-10-26T02:02:44;95876.19;;;15.18;100.00
4617;BME280;2321;42.704;23.384;2022-10-26T02:05:30;95879.50;;;15.13;100.00
4617;BME280;2321;42.704;23.384;2022-10-26T02:08:10;95891.47;;;15.03;100.00
4617;BME280;2321;42.704;23.384;2022-10-26T02:10:48;95885.09;;;14.91;100.00
4617;BME280;2321;42.704;23.384;2022-10-26T02:13:21;95889.81;;;14.75;100.00
4617;BME280;2321;42.704;23.384;2022-10-26T02:15:53;95882.19;;;14.58;100.00
4617;BME280;2321;42.704;23.384;2022-10-26T02:18:29;95890.66;;;14.55;100.00
4617;BME280;2321;42.704;23.384;2022-10-26T02:21:02;95900.31;;;14.49;100.00
4617;BME280;2321;42.704;23.384;2022-10-26T02:23:32;95901.97;;;14.51;100.00
4617;BME280;2321;42.704;23.384;2022-10-26T02:26:02;95907.09;;;14.38;100.00
4617;BME280;2321;42.704;23.384;2022-10-26T02:28:33;95905.84;;;14.21;100.00
4617;BME280;2321;42.704;23.384;2022-10-26T02:31:02;95904.34;;;13.98;100.00
4617;BME280;2321;42.704;23.384;2022-10-26T02:33:35;95909.22;;;13.74;100.00
4617;BME280;2321;42.704;23.384;2022-10-26T02:36:07;95906.72;;;13.72;100.00
4617;BME280;2321;42.704;23.384;2022-10-26T02:38:36;95904.31;;;13.48;100.00
4617;BME280;2321;42.704;23.384;2022-10-26T02:41:06;95906.97;;;13.42;100.00
4617;BME280;2321;42.704;23.384;2022-10-26T02:43:38;95904.50;;;13.40;100.00
4617;BME280;2321;42.704;23.384;2022-10-26T02:46:10;95897.63;;;13.24;100.00
4617;BME280;2321;42.704;23.384;2022-10-26T02:48:40;95901.50;;;13.21;100.00
4617;BME280;2321;42.704;23.384;2022-10-26T02:51:10;95901.03;;;13.11;100.00
4617;BME280;2321;42.704;23.384;2022-10-26T02:53:43;95911.63;;;12.97;100.00
4617;BME280;2321;42.704;23.384;2022-10-26T02:56:17;95902.69;;;12.83;100.00
4617;BME280;2321;42.704;23.384;2022-10-26T02:58:48;95917.09;;;12.89;100.00
4617;BME280;2321;42.704;23.384;2022-10-26T03:01:16;95917.31;;;12.87;100.00
4617;BME280;2321;42.704;23.384;2022-10-26T03:03:45;95917.94;;;12.89;100.00
4617;BME280;2321;42.704;23.384;2022-10-26T03:06:13;95911.59;;;12.90;100.00
4617;BME280;2321;42.704;23.384;2022-10-26T03:08:45;95918.94;;;12.88;100.00
4617;BME280;2321;42.704;23.384;2022-10-26T03:11:12;95918.31;;;12.86;100.00
4617;BME280;2321;42.704;23.384;2022-10-26T03:13:39;95917.88;;;12.82;100.00
4617;BME280;2321;42.704;23.384;2022-10-26T03:16:06;95923.56;;;12.72;100.00
4617;BME280;2321;42.704;23.384;2022-10-26T03:18:33;95923.59;;;12.79;100.00
4617;BME280;2321;42.704;23.384;2022-10-26T03:21:01;95927.72;;;12.82;100.00
4617;BME280;2321;42.704;23.384;2022-10-26T03:23:28;95928.38;;;12.84;100.00
4617;BME280;2321;42.704;23.384;2022-10-26T03:25:56;95932.00;;;12.76;100.00
4617;BME280;2321;42.704;23.384;2022-10-26T03:28:22;95932.59;;;12.71;100.00
4617;BME280;2321;42.704;23.384;2022-10-26T03:30:49;95941.91;;;12.76;100.00
4617;BME280;2321;42.704;23.384;2022-10-26T03:33:16;95937.19;;;12.78;100.00
4617;BME280;2321;42.704;23.384;2022-10-26T03:35:43;95940.28;;;12.81;100.00
4617;BME280;2321;42.704;23.384;2022-10-26T03:38:11;95933.09;;;12.82;100.00
4617;BME280;2321;42.704;23.384;2022-10-26T03:40:39;95942.06;;;12.74;100.00
4617;BME280;2321;42.704;23.384;2022-10-26T03:43:06;95937.34;;;12.76;100.00
4617;BME280;2321;42.704;23.384;2022-10-26T03:45:33;95939.78;;;12.71;100.00
4617;BME280;2321;42.704;23.384;2022-10-26T03:48:00;95934.19;;;12.66;100.00
4617;BME280;2321;42.704;23.384;2022-10-26T03:50:27;95944.28;;;12.70;100.00
4617;BME280;2321;42.704;23.384;2022-10-26T03:52:53;95943.75;;;12.75;100.00
4617;BME280;2321;42.704;23.384;2022-10-26T03:55:22;95946.59;;;12.73;100.00
4617;BME280;2321;42.704;23.384;2022-10-26T03:57:49;95942.84;;;12.68;100.00
4617;BME280;2321;42.704;23.384;2022-10-26T04:00:16;95946.28;;;12.61;100.00
4617;BME280;2321;42.704;23.384;2022-10-26T04:02:45;95945.03;;;12.57;100.00
4617;BME280;2321;42.704;23.384;2022-10-26T04:05:12;95950.09;;;12.52;100.00
4617;BME280;2321;42.704;23.384;2022-10-26T04:07:41;95938.78;;;12.50;100.00
4617;BME280;2321;42.704;23.384;2022-10-26T04:10:08;95951.06;;;12.44;100.00
4617;BME280;2321;42.704;23.384;2022-10-26T04:12:37;95950.78;;;12.39;100.00
4617;BME280;2321;42.704;23.384;2022-10-26T04:15:05;95952.28;;;12.41;100.00
4617;BME280;2321;42.704;23.384;2022-10-26T04:17:32;95960.03;;;12.21;100.00
4617;BME280;2321;42.704;23.384;2022-10-26T04:19:59;95962.63;;;11.99;100.00
4617;BME280;2321;42.704;23.384;2022-10-26T04:22:26;95954.75;;;11.91;100.00
4617;BME280;2321;42.704;23.384;2022-10-26T04:24:53;95954.22;;;11.80;100.00
4617;BME280;2321;42.704;23.384;2022-10-26T04:27:20;95952.47;;;11.72;100.00
4617;BME280;2321;42.704;23.384;2022-10-26T04:29:48;95946.25;;;11.65;100.00
4617;BME280;2321;42.704;23.384;2022-10-26T04:32:15;95957.19;;;11.55;100.00
4617;BME280;2321;42.704;23.384;2022-10-26T04:34:42;95963.53;;;11.54;100.00
4617;BME280;2321;42.704;23.384;2022-10-26T04:37:09;95959.84;;;11.55;100.00
4617;BME280;2321;42.704;23.384;2022-10-26T04:39:36;95960.31;;;11.43;100.00
4617;BME280;2321;42.704;23.384;2022-10-26T04:42:03;95966.03;;;11.40;100.00
4617;BME280;2321;42.704;23.384;2022-10-26T04:44:30;95970.31;;;11.41;100.00
4617;BME280;2321;42.704;23.384;2022-10-26T04:46:58;95970.78;;;11.30;100.00
4617;BME280;2321;42.704;23.384;2022-10-26T04:49:25;95975.00;;;11.24;100.00
4617;BME280;2321;42.704;23.384;2022-10-26T04:51:52;95974.19;;;11.24;100.00
4617;BME280;2321;42.704;23.384;2022-10-26T04:54:19;95965.53;;;11.21;100.00
4617;BME280;2321;42.704;23.384;2022-10-26T04:56:46;95976.56;;;11.18;100.00
4617;BME280;2321;42.704;23.384;2022-10-26T04:59:13;95974.00;;;11.10;100.00
4617;BME280;2321;42.704;23.384;2022-10-26T05:01:40;95982.16;;;11.08;100.00
4617;BME280;2321;42.704;23.384;2022-10-26T05:04:08;95981.31;;;11.08;100.00
4617;BME280;2321;42.704;23.384;2022-10-26T05:06:35;95978.53;;;11.01;100.00
4617;BME280;2321;42.704;23.384;2022-10-26T05:09:01;95981.03;;;11.03;100.00
4617;BME280;2321;42.704;23.384;2022-10-26T05:11:28;95973.69;;;11.05;100.00
4617;BME280;2321;42.704;23.384;2022-10-26T05:13:55;95973.44;;;11.15;100.00
4617;BME280;2321;42.704;23.384;2022-10-26T05:16:22;95977.09;;;11.14;100.00
4617;BME280;2321;42.704;23.384;2022-10-26T05:18:49;95976.19;;;11.06;100.00
4617;BME280;2321;42.704;23.384;2022-10-26T05:21:17;95979.69;;;11.07;100.00
4617;BME280;2321;42.704;23.384;2022-10-26T05:23:48;95985.66;;;11.09;100.00
4617;BME280;2321;42.704;23.384;2022-10-26T05:26:15;95986.56;;;11.16;100.00
4617;BME280;2321;42.704;23.384;2022-10-26T05:28:42;95992.84;;;11.24;100.00
4617;BME280;2321;42.704;23.384;2022-10-26T05:31:09;95996.97;;;11.26;100.00
4617;BME280;2321;42.704;23.384;2022-10-26T05:33:36;95998.63;;;11.27;100.00
4617;BME280;2321;42.704;23.384;2022-10-26T05:36:03;96000.22;;;11.37;100.00
4617;BME280;2321;42.704;23.384;2022-10-26T05:38:32;95999.13;;;11.46;100.00
4617;BME280;2321;42.704;23.384;2022-10-26T05:40:58;96001.69;;;11.54;100.00
4617;BME280;2321;42.704;23.384;2022-10-26T05:43:26;95999.13;;;11.61;100.00
4617;BME280;2321;42.704;23.384;2022-10-26T05:45:53;96009.13;;;11.59;100.00
4617;BME280;2321;42.704;23.384;2022-10-26T05:48:20;96016.41;;;11.65;100.00
4617;BME280;2321;42.704;23.384;2022-10-26T05:50:47;96016.69;;;11.71;100.00
4617;BME280;2321;42.704;23.384;2022-10-26T05:53:14;96016.78;;;11.93;100.00
4617;BME280;2321;42.704;23.384;2022-10-26T05:55:43;96018.88;;;11.97;100.00
4617;BME280;2321;42.704;23.384;2022-10-26T05:58:11;96020.59;;;12.05;100.00
4617;BME280;2321;42.704;23.384;2022-10-26T06:00:48;96020.69;;;12.12;100.00
4617;BME280;2321;42.704;23.384;2022-10-26T06:03:25;96026.63;;;12.23;100.00
4617;BME280;2321;42.704;23.384;2022-10-26T06:05:58;96014.34;;;12.28;100.00
4617;BME280;2321;42.704;23.384;2022-10-26T06:08:26;96034.63;;;12.23;100.00
4617;BME280;2321;42.704;23.384;2022-10-26T06:10:56;96032.13;;;12.21;100.00
4617;BME280;2321;42.704;23.384;2022-10-26T06:13:25;96029.91;;;12.25;100.00
4617;BME280;2321;42.704;23.384;2022-10-26T06:16:17;96045.19;;;12.31;100.00
4617;BME280;2321;42.704;23.384;2022-10-26T06:19:00;96049.22;;;12.42;100.00
4617;BME280;2321;42.704;23.384;2022-10-26T06:21:40;96045.03;;;12.55;100.00
4617;BME280;2321;42.704;23.384;2022-10-26T06:24:15;96052.13;;;12.62;100.00
4617;BME280;2321;42.704;23.384;2022-10-26T06:26:55;96049.53;;;12.69;100.00
4617;BME280;2321;42.704;23.384;2022-10-26T06:29:34;96050.28;;;12.85;100.00
4617;BME280;2321;42.704;23.384;2022-10-26T06:32:02;96045.28;;;12.97;100.00
4617;BME280;2321;42.704;23.384;2022-10-26T06:34:33;96043.84;;;13.01;100.00
4617;BME280;2321;42.704;23.384;2022-10-26T06:37:01;96044.38;;;13.12;100.00
4617;BME280;2321;42.704;23.384;2022-10-26T06:39:34;96050.47;;;13.27;100.00
4617;BME280;2321;42.704;23.384;2022-10-26T06:42:04;96055.28;;;13.39;100.00
4617;BME280;2321;42.704;23.384;2022-10-26T06:44:32;96057.63;;;13.49;100.00
4617;BME280;2321;42.704;23.384;2022-10-26T06:47:03;96057.94;;;13.61;100.00
4617;BME280;2321;42.704;23.384;2022-10-26T06:49:34;96066.44;;;13.71;100.00
4617;BME280;2321;42.704;23.384;2022-10-26T06:52:07;96063.38;;;13.75;100.00
4617;BME280;2321;42.704;23.384;2022-10-26T06:54:45;96065.88;;;13.76;100.00
4617;BME280;2321;42.704;23.384;2022-10-26T06:57:16;96074.75;;;13.83;100.00
4617;BME280;2321;42.704;23.384;2022-10-26T06:59:47;96070.13;;;13.99;100.00
4617;BME280;2321;42.704;23.384;2022-10-26T07:02:14;96072.22;;;14.11;100.00
4617;BME280;2321;42.704;23.384;2022-10-26T07:04:42;96062.59;;;14.16;100.00
4617;BME280;2321;42.704;23.384;2022-10-26T07:07:11;96071.28;;;14.32;100.00
4617;BME280;2321;42.704;23.384;2022-10-26T07:09:38;96064.31;;;14.31;100.00
4617;BME280;2321;42.704;23.384;2022-10-26T07:12:05;96068.25;;;14.42;100.00
4617;BME280;2321;42.704;23.384;2022-10-26T07:14:34;96057.13;;;14.45;100.00
4617;BME280;2321;42.704;23.384;2022-10-26T07:17:01;96057.78;;;14.54;100.00
4617;BME280;2321;42.704;23.384;2022-10-26T07:19:27;96058.84;;;14.67;100.00
4617;BME280;2321;42.704;23.384;2022-10-26T07:21:54;96059.50;;;14.76;100.00
4617;BME280;2321;42.704;23.384;2022-10-26T07:24:23;96060.59;;;14.88;100.00
4617;BME280;2321;42.704;23.384;2022-10-26T07:26:52;96068.66;;;15.02;100.00
4617;BME280;2321;42.704;23.384;2022-10-26T07:29:20;96066.81;;;15.16;100.00
4617;BME280;2321;42.704;23.384;2022-10-26T07:31:48;96066.41;;;15.26;100.00
4617;BME280;2321;42.704;23.384;2022-10-26T07:34:15;96059.00;;;15.35;100.00
4617;BME280;2321;42.704;23.384;2022-10-26T07:36:42;96054.44;;;15.49;100.00
4617;BME280;2321;42.704;23.384;2022-10-26T07:39:09;96053.00;;;15.60;100.00
4617;BME280;2321;42.704;23.384;2022-10-26T07:41:36;96054.63;;;15.68;100.00
4617;BME280;2321;42.704;23.384;2022-10-26T07:44:03;96046.97;;;15.78;100.00
4617;BME280;2321;42.704;23.384;2022-10-26T07:46:29;96049.03;;;15.90;100.00
4617;BME280;2321;42.704;23.384;2022-10-26T07:48:58;96038.66;;;16.07;100.00
4617;BME280;2321;42.704;23.384;2022-10-26T07:51:25;96046.88;;;16.19;100.00
4617;BME280;2321;42.704;23.384;2022-10-26T07:53:51;96055.50;;;16.35;100.00
4617;BME280;2321;42.704;23.384;2022-10-26T07:56:18;96045.16;;;16.46;100.00
4617;BME280;2321;42.704;23.384;2022-10-26T07:58:45;96049.22;;;16.62;100.00
4617;BME280;2321;42.704;23.384;2022-10-26T08:01:14;96049.97;;;16.76;100.00
4617;BME280;2321;42.704;23.384;2022-10-26T08:03:41;96045.75;;;16.87;100.00
4617;BME280;2321;42.704;23.384;2022-10-26T08:06:09;96048.78;;;16.97;100.00
4617;BME280;2321;42.704;23.384;2022-10-26T08:08:36;96053.28;;;17.10;100.00
4617;BME280;2321;42.704;23.384;2022-10-26T08:11:04;96055.72;;;17.19;100.00
4617;BME280;2321;42.704;23.384;2022-10-26T08:13:31;96053.41;;;17.23;100.00
4617;BME280;2321;42.704;23.384;2022-10-26T08:16:02;96043.78;;;17.34;100.00
4617;BME280;2321;42.704;23.384;2022-10-26T08:18:30;96054.03;;;17.50;100.00
4617;BME280;2321;42.704;23.384;2022-10-26T08:21:01;96054.78;;;17.58;100.00
4617;BME280;2321;42.704;23.384;2022-10-26T08:23:30;96050.56;;;17.69;100.00
4617;BME280;2321;42.704;23.384;2022-10-26T08:25:57;96046.09;;;17.81;100.00
4617;BME280;2321;42.704;23.384;2022-10-26T08:28:25;96042.59;;;18.00;100.00
4617;BME280;2321;42.704;23.384;2022-10-26T08:30:52;96032.59;;;18.00;100.00
4617;BME280;2321;42.704;23.384;2022-10-26T08:33:20;96047.59;;;18.15;100.00
4617;BME280;2321;42.704;23.384;2022-10-26T08:35:47;96042.81;;;18.17;100.00
4617;BME280;2321;42.704;23.384;2022-10-26T08:38:14;96046.28;;;18.24;100.00
4617;BME280;2321;42.704;23.384;2022-10-26T08:40:42;96046.56;;;18.35;100.00
4617;BME280;2321;42.704;23.384;2022-10-26T08:43:14;96040.84;;;18.43;97.26
4617;BME280;2321;42.704;23.384;2022-10-26T08:45:46;96034.25;;;18.58;94.54
4617;BME280;2321;42.704;23.384;2022-10-26T08:48:18;96044.34;;;18.62;93.49
4617;BME280;2321;42.704;23.384;2022-10-26T08:50:49;96039.09;;;18.68;92.87
4617;BME280;2321;42.704;23.384;2022-10-26T08:53:19;96029.81;;;18.64;93.70
4617;BME280;2321;42.704;23.384;2022-10-26T08:55:54;96035.25;;;18.76;91.47
4617;BME280;2321;42.704;23.384;2022-10-26T08:58:26;96049.53;;;18.95;90.43
4617;BME280;2321;42.704;23.384;2022-10-26T09:00:54;96044.00;;;19.02;88.17
4617;BME280;2321;42.704;23.384;2022-10-26T09:03:20;96054.03;;;19.13;85.25
4617;BME280;2321;42.704;23.384;2022-10-26T09:06:12;96041.34;;;19.14;85.88
4617;BME280;2321;42.704;23.384;2022-10-26T09:08:56;96049.22;;;19.15;84.45
4617;BME280;2321;42.704;23.384;2022-10-26T09:11:38;96042.16;;;19.14;84.31
4617;BME280;2321;42.704;23.384;2022-10-26T09:14:13;96050.69;;;19.30;84.50
4617;BME280;2321;42.704;23.384;2022-10-26T09:16:50;96048.81;;;19.43;83.45
4617;BME280;2321;42.704;23.384;2022-10-26T09:19:41;96045.09;;;19.56;81.24
4617;BME280;2321;42.704;23.384;2022-10-26T09:22:16;96042.38;;;19.68;82.37
4617;BME280;2321;42.704;23.384;2022-10-26T09:24:52;96044.16;;;19.86;77.44
4617;BME280;2321;42.704;23.384;2022-10-26T09:27:25;96042.03;;;19.88;72.21
4617;BME280;2321;42.704;23.384;2022-10-26T09:29:54;96044.59;;;19.95;72.05
4617;BME280;2321;42.704;23.384;2022-10-26T09:32:25;96043.66;;;19.89;73.60
4617;BME280;2321;42.704;23.384;2022-10-26T09:34:58;96034.72;;;20.01;75.14
4617;BME280;2321;42.704;23.384;2022-10-26T09:37:30;96045.91;;;20.17;68.89
4617;BME280;2321;42.704;23.384;2022-10-26T09:40:06;96041.41;;;20.22;64.67
4617;BME280;2321;42.704;23.384;2022-10-26T09:42:39;96039.72;;;20.33;63.67
4617;BME280;2321;42.704;23.384;2022-10-26T09:45:14;96039.22;;;20.49;61.51
4617;BME280;2321;42.704;23.384;2022-10-26T09:47:47;96035.47;;;20.50;59.02
4617;BME280;2321;42.704;23.384;2022-10-26T09:50:21;96034.63;;;20.49;59.01
4617;BME280;2321;42.704;23.384;2022-10-26T09:52:49;96024.16;;;20.53;58.24
4617;BME280;2321;42.704;23.384;2022-10-26T09:55:16;96026.72;;;20.60;58.69
4617;BME280;2321;42.704;23.384;2022-10-26T09:57:49;96026.81;;;20.65;60.49
4617;BME280;2321;42.704;23.384;2022-10-26T10:00:19;96028.66;;;20.76;58.36
4617;BME280;2321;42.704;23.384;2022-10-26T10:02:50;96023.91;;;20.84;55.59
4617;BME280;2321;42.704;23.384;2022-10-26T10:05:23;96020.38;;;20.83;54.50
4617;BME280;2321;42.704;23.384;2022-10-26T10:07:51;96015.31;;;20.87;56.75
4617;BME280;2321;42.704;23.384;2022-10-26T10:10:19;96003.03;;;20.96;56.85
4617;BME280;2321;42.704;23.384;2022-10-26T10:12:49;96000.19;;;21.03;54.90
4617;BME280;2321;42.704;23.384;2022-10-26T10:15:19;96006.84;;;21.13;56.27
4617;BME280;2321;42.704;23.384;2022-10-26T10:17:47;96002.75;;;21.27;59.37
4617;BME280;2321;42.704;23.384;2022-10-26T10:20:18;96003.06;;;21.48;56.25
4617;BME280;2321;42.704;23.384;2022-10-26T10:22:56;96001.91;;;21.61;55.00
4617;BME280;2321;42.704;23.384;2022-10-26T10:25:33;95995.81;;;21.71;52.85
4617;BME280;2321;42.704;23.384;2022-10-26T10:28:02;95993.41;;;21.75;50.88
4617;BME280;2321;42.704;23.384;2022-10-26T10:30:31;95992.03;;;21.72;49.93
4617;BME280;2321;42.704;23.384;2022-10-26T10:33:07;95990.72;;;21.75;49.26
4617;BME280;2321;42.704;23.384;2022-10-26T10:35:37;96004.25;;;21.75;48.35
4617;BME280;2321;42.704;23.384;2022-10-26T10:38:05;95987.16;;;21.74;49.64
4617;BME280;2321;42.704;23.384;2022-10-26T10:40:38;95984.78;;;21.78;49.86
4617;BME280;2321;42.704;23.384;2022-10-26T10:43:11;95978.88;;;21.81;48.98
4617;BME280;2321;42.704;23.384;2022-10-26T10:45:40;95978.22;;;21.91;49.97
4617;BME280;2321;42.704;23.384;2022-10-26T10:48:15;95983.53;;;22.03;48.48
4617;BME280;2321;42.704;23.384;2022-10-26T10:50:51;95982.78;;;22.08;48.61
4617;BME280;2321;42.704;23.384;2022-10-26T10:53:21;95973.88;;;22.13;47.50
4617;BME280;2321;42.704;23.384;2022-10-26T10:56:13;95966.53;;;22.08;48.36
4617;BME280;2321;42.704;23.384;2022-10-26T10:58:51;95968.31;;;22.25;47.01
4617;BME280;2321;42.704;23.384;2022-10-26T11:01:26;95964.53;;;22.26;46.97
4617;BME280;2321;42.704;23.384;2022-10-26T11:04:13;95959.03;;;22.20;47.20
4617;BME280;2321;42.704;23.384;2022-10-26T11:06:47;95968.88;;;22.27;47.33
4617;BME280;2321;42.704;23.384;2022-10-26T11:09:17;95944.38;;;22.16;45.54
4617;BME280;2321;42.704;23.384;2022-10-26T11:11:47;95960.75;;;22.27;47.08
4617;BME280;2321;42.704;23.384;2022-10-26T11:14:19;95955.41;;;22.32;45.84
4617;BME280;2321;42.704;23.384;2022-10-26T11:16:52;95950.56;;;22.39;46.57
4617;BME280;2321;42.704;23.384;2022-10-26T11:19:24;95957.47;;;22.47;45.92
4617;BME280;2321;42.704;23.384;2022-10-26T11:21:53;95952.59;;;22.49;46.10
4617;BME280;2321;42.704;23.384;2022-10-26T11:24:23;95943.75;;;22.59;45.24
4617;BME280;2321;42.704;23.384;2022-10-26T11:26:56;95954.31;;;22.61;45.44
4617;BME280;2321;42.704;23.384;2022-10-26T11:29:30;95947.00;;;22.61;43.96
4617;BME280;2321;42.704;23.384;2022-10-26T11:32:04;95949.75;;;22.67;44.19
4617;BME280;2321;42.704;23.384;2022-10-26T11:34:37;95944.91;;;22.69;45.27
4617;BME280;2321;42.704;23.384;2022-10-26T11:37:11;95943.25;;;22.68;43.93
4617;BME280;2321;42.704;23.384;2022-10-26T11:39:44;95942.81;;;22.76;43.51
4617;BME280;2321;42.704;23.384;2022-10-26T11:42:20;95945.59;;;22.81;43.95
4617;BME280;2321;42.704;23.384;2022-10-26T11:44:56;95941.78;;;22.82;42.55
4617;BME280;2321;42.704;23.384;2022-10-26T11:47:29;95939.59;;;22.79;43.12
4617;BME280;2321;42.704;23.384;2022-10-26T11:50:03;95941.78;;;22.82;43.49
4617;BME280;2321;42.704;23.384;2022-10-26T11:52:37;95933.75;;;22.93;42.25
4617;BME280;2321;42.704;23.384;2022-10-26T11:55:08;95928.34;;;22.98;41.93
4617;BME280;2321;42.704;23.384;2022-10-26T11:57:36;95935.75;;;23.08;41.49
4617;BME280;2321;42.704;23.384;2022-10-26T12:00:07;95931.72;;;23.11;40.86
4617;BME280;2321;42.704;23.384;2022-10-26T12:02:40;95939.00;;;23.05;41.01
4617;BME280;2321;42.704;23.384;2022-10-26T12:05:18;95936.53;;;23.03;40.70
4617;BME280;2321;42.704;23.384;2022-10-26T12:07:50;95925.72;;;23.09;40.60
4617;BME280;2321;42.704;23.384;2022-10-26T12:10:25;95922.22;;;23.13;40.96
4617;BME280;2321;42.704;23.384;2022-10-26T12:13:20;95931.19;;;23.14;39.35
4617;BME280;2321;42.704;23.384;2022-10-26T12:15:58;95923.59;;;23.16;40.38
4617;BME280;2321;42.704;23.384;2022-10-26T12:18:33;95922.53;;;23.17;40.84
4617;BME280;2321;42.704;23.384;2022-10-26T12:21:05;95923.91;;;23.25;39.08
4617;BME280;2321;42.704;23.384;2022-10-26T12:23:35;95925.84;;;23.24;39.34
4617;BME280;2321;42.704;23.384;2022-10-26T12:29:37;95917.69;;;23.24;39.51
4617;BME280;2321;42.704;23.384;2022-10-26T12:35:37;95925.00;;;23.24;39.81
4617;BME280;2321;42.704;23.384;2022-10-26T12:41:21;95918.22;;;23.21;40.41
4617;BME280;2321;42.704;23.384;2022-10-26T12:43:48;95921.19;;;23.25;39.18
4617;BME280;2321;42.704;23.384;2022-10-26T12:46:39;95919.63;;;23.34;38.88
4617;BME280;2321;42.704;23.384;2022-10-26T12:52:32;95917.75;;;23.40;38.05
4617;BME280;2321;42.704;23.384;2022-10-26T12:55:39;95925.91;;;23.40;37.31
4617;BME280;2321;42.704;23.384;2022-10-26T13:01:38;95920.47;;;23.40;37.39
4617;BME280;2321;42.704;23.384;2022-10-26T13:04:17;95924.53;;;23.37;37.52
4617;BME280;2321;42.704;23.384;2022-10-26T13:07:08;95923.19;;;23.40;37.86
4617;BME280;2321;42.704;23.384;2022-10-26T13:09:44;95925.38;;;23.38;38.41
4617;BME280;2321;42.704;23.384;2022-10-26T13:12:12;95916.97;;;23.39;37.99
4617;BME280;2321;42.704;23.384;2022-10-26T13:14:53;95919.41;;;23.41;38.21
4617;BME280;2321;42.704;23.384;2022-10-26T13:17:24;95917.75;;;23.35;38.74
4617;BME280;2321;42.704;23.384;2022-10-26T13:19:54;95929.16;;;23.37;38.34
4617;BME280;2321;42.704;23.384;2022-10-26T13:22:23;95928.59;;;23.29;37.46
4617;BME280;2321;42.704;23.384;2022-10-26T13:24:53;95918.78;;;23.28;37.10
4617;BME280;2321;42.704;23.384;2022-10-26T13:27:42;95925.31;;;23.27;36.97
4617;BME280;2321;42.704;23.384;2022-10-26T13:30:28;95925.00;;;23.24;36.62
4617;BME280;2321;42.704;23.384;2022-10-26T13:33:01;95924.19;;;23.23;36.63
4617;BME280;2321;42.704;23.384;2022-10-26T13:38:28;95920.56;;;23.12;34.99
4617;BME280;2321;42.704;23.384;2022-10-26T13:41:04;95928.78;;;23.17;35.34
4617;BME280;2321;42.704;23.384;2022-10-26T13:43:32;95930.66;;;23.17;34.70
4617;BME280;2321;42.704;23.384;2022-10-26T13:48:44;95936.88;;;23.12;34.35